الصفحة الرئيسية
METAR-TAF:

METAR-TAF

مطار :

Nogales, أريزونا, الولايات المتحدة

دائرة عرض: 31-25-15N, خط طول: 110-50-45W, ارتفاع: 1198 متر

مراقبة الطقس الحالي

تاريخ ووقت الإصدار 1ساعة و 6 دقيقة قبل الساعة 00:54UTC
ريح 3 عقدةمن اتجاهات متغيرة
درجة الحرارة 37°درجة مئوية
الرطوبة 21%
ضغط 1016 hPa
الرؤية: 16.1 كم
سماء صافية

METAR: KOLS 100054Z AUTO VRB03KT 10SM CLR 37/11 A3001 RMK AO2 SLP082 T03670106

زمن: 19:00 (02:00 UTC)

توقعات

تاريخ ووقت الإصدار 2ساعات و 40 دقيقة قبل الساعة 23:20UTC
التوقعات صالحة من10 الساعة 00 UTC إلى 10 الساعة 24 UTC
ريح 5 عقدة من الغرب/الشمال الغربي
الرؤية: 10 كم
غيوم مفككة على ارتفاع 10000 قدم
من 10 الساعة 0300 UTC
ريح 5 عقدة من الشرق
الرؤية: 10 كم
غيوم متفرقة على ارتفاع 12000 قدم
من 10 الساعة 0600 UTC
ريح 3 عقدةمن اتجاهات متغيرة
الرؤية: 10 كم
غيوم قليلة على ارتفاع 14000 قدم
من 10 الساعة 2000 UTC
ريح 8 عقدة من الغرب
الرؤية: 10 كم
غيوم متفرقة على ارتفاع 10000 قدم

TAF: KOLS 092320Z 1000/1024 29005KT P6SM BKN100 FM100300 08005KT P6SM SCT120 FM100600 VRB03KT P6SM FEW140 FM102000 27008KT P6SM SCT100

أرصاد الطقس والتوقعات من أكثر من 4000 مطار (تقارير الطقس للمطار METAR والتنبؤ بالطقس بالمطارTAF).

المحطات المتاحة هي النقط الصفراء والحمراء على الخريطة.

حرك المؤشر فوق النقطة لمعرفة اسم المحطة.

ثم انقر لمعرفة أرصاد وتوقعات الطقس.

لتغيير الخارطة: اضغط على الأزرار الخضراء مع رمز الصليب الأسود للتكبير. على الزر الأخضر مع شرطة للتصغير، أو على الأسهم الخضراء للخرائط المجاورة.


METAR-TAF: